Terminal Aerodrome Forecast
Issued by NWS

Home | Current Version | Previous Version | Text Only | Print | Product List | Glossary On
Versions: 1 2 3 4 5 6 7 8 9 10 11 12 13 14 15 16 17 18 19 20 21 22 23 24 25 26 27 28
000
FTUS41 KALY 210500
TAFPSF
TAF
KPSF 210536Z 2106/2206 00000KT P6SM -SHRA SCT040 OVC060
     FM210800 00000KT P6SM -SHRA OVC040
     FM211200 VRB02KT 6SM -SHRA BR SCT025 OVC035
     FM211800 VRB03KT 6SM -SHRA BR OVC030
     FM220000 01004KT 5SM -SHRA BR OVC020=

USA.gov is the U.S. government's official web portal to all federal, state and local government web resources and services.